createdAt,value
2018-03-07T00:03:31.118Z,31.07
2018-03-07T00:08:34.222Z,27.80
2018-03-07T00:13:38.843Z,28.45
2018-03-07T00:18:43.630Z,28.97
2018-03-07T00:23:47.113Z,30.93
2018-03-07T00:28:51.617Z,31.00
2018-03-07T00:33:55.102Z,30.03
2018-03-07T00:38:59.336Z,32.20
2018-03-07T00:44:03.549Z,30.57
2018-03-07T00:49:07.039Z,32.43
2018-03-07T00:54:11.536Z,32.93
2018-03-07T00:59:14.638Z,31.57
2018-03-07T01:04:18.500Z,30.73
2018-03-07T01:09:21.981Z,31.00
2018-03-07T01:14:26.423Z,32.83
2018-03-07T01:19:30.869Z,28.17
2018-03-07T01:24:35.309Z,27.47
2018-03-07T01:29:39.820Z,26.10
2018-03-07T01:34:43.661Z,25.77
2018-03-07T01:39:48.111Z,29.43
2018-03-07T01:44:51.949Z,28.17
2018-03-07T01:49:55.038Z,27.80
2018-03-07T01:54:59.489Z,30.17
2018-03-07T02:00:03.402Z,29.97
2018-03-07T02:05:07.274Z,33.30
2018-03-07T02:15:20.970Z,29.07
2018-03-07T02:20:24.814Z,30.50
2018-03-07T02:25:27.897Z,28.07
2018-03-07T02:30:32.110Z,27.97
2018-03-07T02:35:36.325Z,25.40
2018-03-07T02:40:39.467Z,24.53
2018-03-07T02:45:43.338Z,25.57
2018-03-07T02:50:47.200Z,24.60
2018-03-07T02:55:50.305Z,25.63
2018-03-07T03:00:53.397Z,25.30
2018-03-07T03:05:57.263Z,24.40
2018-03-07T03:11:00.371Z,23.00
2018-03-07T03:16:03.874Z,23.43
2018-03-07T03:21:08.465Z,22.17
2018-03-07T03:26:12.693Z,24.77
2018-03-07T03:31:16.196Z,22.90
2018-03-07T03:36:19.716Z,24.50
2018-03-07T03:41:22.810Z,23.17
2018-03-07T03:46:27.252Z,22.13
2018-03-07T03:51:30.757Z,21.53
2018-03-07T03:56:35.204Z,23.30
2018-03-07T04:01:39.055Z,23.90
2018-03-07T04:06:42.953Z,21.57
2018-03-07T04:11:47.201Z,22.77
2018-03-07T04:16:51.635Z,19.87
2018-03-07T04:21:55.579Z,21.70
2018-03-07T04:27:00.231Z,21.73
2018-03-07T04:32:04.085Z,21.20
2018-03-07T04:37:08.511Z,20.67
2018-03-07T04:42:12.953Z,18.87
2018-03-07T04:47:17.401Z,20.93
2018-03-07T04:52:21.842Z,17.43
2018-03-07T04:57:25.691Z,19.80
2018-03-07T05:02:30.120Z,19.33
2018-03-07T05:07:34.776Z,17.33
2018-03-07T05:12:39.206Z,19.33
2018-03-07T05:17:43.626Z,19.90
2018-03-07T05:22:47.471Z,22.23
2018-03-07T05:27:51.900Z,22.93
2018-03-07T05:32:55.759Z,22.20
2018-03-07T05:37:59.236Z,22.97
2018-03-07T05:43:03.682Z,24.17
2018-03-07T05:48:08.153Z,23.80
2018-03-07T05:53:12.580Z,24.73
2018-03-07T05:58:15.798Z,24.30
2018-03-07T06:03:18.867Z,23.47
2018-03-07T06:08:21.972Z,23.30
2018-03-07T06:13:26.421Z,21.53
2018-03-07T06:18:31.685Z,22.70
2018-03-07T06:23:36.277Z,21.43
2018-03-07T06:28:39.772Z,21.33
2018-03-07T06:33:43.616Z,21.67
2018-03-07T06:38:46.711Z,23.30
2018-03-07T06:43:51.138Z,22.33
2018-03-07T06:48:55.200Z,22.47
2018-03-07T06:53:58.684Z,21.80
2018-03-07T06:59:03.098Z,19.07
2018-03-07T07:04:06.203Z,17.30
2018-03-07T07:09:10.642Z,15.77
2018-03-07T07:14:15.257Z,16.07
2018-03-07T07:19:19.685Z,14.43
2018-03-07T07:24:23.931Z,16.63
2018-03-07T07:29:28.363Z,16.60
2018-03-07T07:34:32.798Z,15.38
2018-03-07T07:39:37.213Z,17.40
2018-03-07T07:44:40.308Z,14.77
2018-03-07T07:49:44.727Z,15.83
2018-03-07T07:54:49.339Z,16.17
2018-03-07T07:59:53.941Z,15.97
2018-03-07T08:04:57.416Z,16.90
2018-03-07T08:10:00.507Z,15.53
2018-03-07T08:15:03.996Z,16.00
2018-03-07T08:20:07.073Z,17.27
2018-03-07T08:25:11.765Z,17.10
2018-03-07T08:30:15.976Z,17.00
2018-03-07T08:35:19.047Z,17.67
2018-03-07T08:40:23.479Z,17.30
2018-03-07T08:45:26.568Z,17.67
2018-03-07T08:50:29.651Z,16.40
2018-03-07T08:55:33.107Z,16.45
2018-03-07T09:00:36.983Z,18.93
2018-03-07T09:05:40.435Z,17.37
2018-03-07T09:10:44.287Z,18.90
2018-03-07T09:15:48.907Z,18.57
2018-03-07T09:20:52.394Z,17.47
2018-03-07T09:25:56.257Z,18.50
2018-03-07T09:30:59.343Z,19.20
2018-03-07T09:36:03.776Z,19.07
2018-03-07T09:41:08.220Z,18.83
2018-03-07T09:46:11.283Z,20.13
2018-03-07T09:51:15.513Z,20.03
2018-03-07T09:56:19.771Z,19.73
2018-03-07T10:01:24.171Z,20.00
2018-03-07T10:06:28.385Z,19.60
2018-03-07T10:11:32.238Z,18.63
2018-03-07T10:16:35.354Z,18.33
2018-03-07T10:21:39.731Z,19.13
2018-03-07T10:26:44.326Z,17.95
2018-03-07T10:31:48.755Z,13.37
2018-03-07T10:36:52.601Z,12.90
2018-03-07T10:41:56.432Z,8.97
2018-03-07T10:47:00.854Z,9.53
2018-03-07T10:52:06.371Z,9.20
2018-03-07T10:57:09.875Z,8.53
2018-03-07T11:02:13.735Z,8.07
2018-03-07T11:07:16.821Z,7.30
2018-03-07T11:12:20.687Z,7.53
2018-03-07T11:17:24.547Z,6.50
2018-03-07T11:22:29.745Z,6.17
2018-03-07T11:27:33.928Z,6.10
2018-03-07T11:32:37.380Z,4.93
2018-03-07T11:37:40.464Z,3.27
2018-03-07T11:42:43.547Z,3.30
2018-03-07T11:47:46.643Z,3.23
2018-03-07T11:52:50.852Z,2.75
2018-03-07T11:57:54.707Z,2.87
2018-03-07T12:02:58.187Z,3.20
2018-03-07T12:08:01.264Z,3.60
2018-03-07T12:13:05.119Z,3.33
2018-03-07T12:18:08.884Z,3.00
2018-03-07T12:23:13.319Z,3.60
2018-03-07T12:28:17.168Z,3.43
2018-03-07T12:33:21.753Z,4.00
2018-03-07T12:38:24.843Z,3.50
2018-03-07T12:43:27.927Z,3.50
2018-03-07T12:48:31.002Z,3.40
2018-03-07T12:53:34.467Z,3.53
2018-03-07T12:58:38.172Z,3.30
2018-03-07T13:03:42.372Z,3.30
2018-03-07T13:08:46.216Z,3.30
2018-03-07T13:13:49.318Z,3.47
2018-03-07T13:18:53.143Z,3.70
2018-03-07T13:23:56.619Z,3.10
2018-03-07T13:29:00.123Z,3.30
2018-03-07T13:34:04.451Z,3.27
2018-03-07T13:39:08.023Z,2.60
2018-03-07T13:44:12.931Z,2.47
2018-03-07T13:49:16.391Z,2.30
2018-03-07T13:54:20.223Z,2.07
2018-03-07T13:59:23.302Z,2.10
2018-03-07T14:04:26.416Z,2.13
2018-03-07T14:09:29.921Z,1.93
2018-03-07T14:14:33.272Z,2.20
2018-03-07T14:19:37.190Z,1.70
2018-03-07T14:24:41.122Z,1.67
2018-03-07T14:29:46.007Z,1.80
2018-03-07T14:34:49.087Z,1.57
2018-03-07T14:39:52.557Z,1.60
2018-03-07T14:44:56.756Z,1.50
2018-03-07T14:50:00.951Z,1.50
2018-03-07T14:55:05.227Z,1.57
2018-03-07T15:00:08.661Z,1.37
2018-03-07T15:05:12.491Z,1.40
2018-03-07T15:10:15.576Z,1.43
2018-03-07T15:15:20.008Z,1.47
2018-03-07T15:20:24.577Z,1.50
2018-03-07T15:25:28.418Z,1.60
2018-03-07T15:30:33.041Z,1.50
2018-03-07T15:35:36.116Z,1.67
2018-03-07T15:40:39.201Z,1.40
2018-03-07T15:45:42.279Z,1.50
2018-03-07T15:50:45.347Z,1.30
2018-03-07T15:55:49.192Z,1.57
2018-03-07T16:00:53.059Z,1.80
2018-03-07T16:05:56.944Z,1.40
2018-03-07T16:11:00.736Z,1.52
2018-03-07T16:16:03.806Z,1.50
2018-03-07T16:21:08.047Z,1.80
2018-03-07T16:26:11.896Z,2.13
2018-03-07T16:31:15.740Z,2.20
2018-03-07T16:36:18.827Z,2.37
2018-03-07T16:41:21.950Z,1.40
2018-03-07T16:46:26.379Z,1.40
2018-03-07T16:51:29.887Z,1.57
2018-03-07T16:56:34.100Z,1.30
2018-03-07T17:01:37.204Z,1.17
2018-03-07T17:06:42.153Z,1.40
2018-03-07T17:11:46.347Z,1.33
2018-03-07T17:16:50.771Z,1.13
2018-03-07T17:21:55.198Z,1.10
2018-03-07T17:26:59.630Z,1.20
2018-03-07T17:32:03.140Z,1.20
2018-03-07T17:37:07.617Z,1.20
2018-03-07T17:42:11.460Z,1.12
2018-03-07T17:47:14.537Z,1.30
2018-03-07T17:52:17.649Z,1.40
2018-03-07T17:57:20.739Z,1.30
2018-03-07T18:02:25.312Z,1.50
2018-03-07T18:07:29.744Z,1.50
2018-03-07T18:12:33.240Z,1.73
2018-03-07T18:17:37.851Z,1.50
2018-03-07T18:22:43.233Z,1.90
2018-03-07T18:27:47.436Z,2.40
2018-03-07T18:32:51.850Z,2.40
2018-03-07T18:37:54.915Z,2.60
2018-03-07T18:42:57.980Z,2.63
2018-03-07T18:48:02.415Z,3.00
2018-03-07T18:53:06.995Z,3.23
2018-03-07T18:58:10.827Z,3.00
2018-03-07T19:03:15.816Z,3.80
2018-03-07T19:08:20.407Z,3.80
2018-03-07T19:13:24.260Z,4.30
2018-03-07T19:18:28.690Z,4.40
2018-03-07T19:23:32.911Z,4.80
2018-03-07T19:28:37.339Z,4.70
2018-03-07T19:33:41.628Z,5.17
2018-03-07T19:38:44.725Z,5.03
2018-03-07T19:43:48.213Z,5.90
2018-03-07T19:48:51.698Z,5.60
2018-03-07T19:53:56.843Z,4.60
2018-03-07T19:59:00.339Z,5.15
2018-03-07T20:04:04.597Z,5.20
2018-03-07T20:09:08.865Z,5.63
2018-03-07T20:14:12.696Z,5.80
2018-03-07T20:19:15.793Z,5.97
2018-03-07T20:24:18.888Z,6.70
2018-03-07T20:29:21.973Z,7.57
2018-03-07T20:34:26.411Z,7.40
2018-03-07T20:39:30.877Z,7.77
2018-03-07T20:44:35.315Z,7.17
2018-03-07T20:49:39.743Z,7.80
2018-03-07T20:54:44.071Z,7.60
2018-03-07T20:59:48.567Z,8.27
2018-03-07T21:04:52.840Z,8.50
2018-03-07T21:09:55.915Z,8.63
2018-03-07T21:14:59.024Z,9.20
2018-03-07T21:20:03.070Z,8.60
2018-03-07T21:25:06.984Z,8.77
2018-03-07T21:30:10.479Z,8.90
2018-03-07T21:35:13.952Z,7.83
2018-03-07T21:40:18.379Z,8.57
2018-03-07T21:45:22.987Z,8.20
2018-03-07T21:50:26.061Z,8.53
2018-03-07T21:55:29.162Z,6.95
2018-03-07T22:00:32.613Z,8.52
2018-03-07T22:05:37.967Z,8.87
2018-03-07T22:10:42.446Z,10.57
2018-03-07T22:15:45.535Z,11.93
2018-03-07T22:20:48.631Z,12.83
2018-03-07T22:25:52.483Z,15.67
2018-03-07T22:30:56.948Z,15.03
2018-03-07T22:36:00.451Z,15.70
2018-03-07T22:41:04.919Z,15.47
2018-03-07T22:46:08.783Z,15.40
2018-03-07T22:51:12.726Z,16.17
2018-03-07T22:56:15.808Z,16.47
2018-03-07T23:01:19.306Z,17.23
2018-03-07T23:06:23.544Z,15.30
2018-03-07T23:11:27.047Z,14.93
2018-03-07T23:16:31.524Z,14.00
2018-03-07T23:21:35.971Z,15.40
2018-03-07T23:26:40.450Z,15.90
2018-03-07T23:31:45.213Z,14.50
2018-03-07T23:36:48.722Z,13.77
2018-03-07T23:41:53.506Z,13.90
2018-03-07T23:46:57.372Z,13.03
2018-03-07T23:52:01.620Z,12.90
2018-03-07T23:57:08.068Z,12.57
